<?xml version="1.0" encoding="UTF-8" standalone="no" ?>
<gpx xmlns="http://www.topografix.com/GPX/1/1" xmlns:xsi="http://www.w3.org/2001/XMLSchema-instance" xsi:schemaLocation="http://www.topografix.com/GPX/1/1 http://www.topografix.com/GPX/1/1/gpx.xsd" version="1.1" creator="VisuGPX - https://www.visugpx.com">
  <metadata>
    <name>Agde - Bords Herault &amp;amp; Mont Saint Loup</name>
    <desc><![CDATA[Ballade à partir du centre d4Agde permettant d'accéder à quelques sentiers VTT en foret avec point de vue sur la région.]]></desc>
  </metadata>
  <trk>
    <name><![CDATA[Agde - Bords Herault &amp; Mont Saint Loup_1]]></name>
    <trkseg>
      <trkpt lat="43.31525" lon="3.47611">
        <ele>29</ele>
        <time>2011-07-25 14:19:41 +0000</time>
      </trkpt>
      <trkpt lat="43.31535" lon="3.47645">
        <ele>29</ele>
        <time>2011-07-25 14:19:53 +0000</time>
      </trkpt>
      <trkpt lat="43.31535" lon="3.47645">
        <ele>29</ele>
        <time>2011-07-25 14:20:05 +0000</time>
      </trkpt>
      <trkpt lat="43.31546" lon="3.47679">
        <ele>29</ele>
        <time>2011-07-25 14:20:16 +0000</time>
      </trkpt>
      <trkpt lat="43.31575" lon="3.47712">
        <ele>27</ele>
        <time>2011-07-25 14:20:28 +0000</time>
      </trkpt>
      <trkpt lat="43.3162" lon="3.47753">
        <ele>26</ele>
        <time>2011-07-25 14:20:39 +0000</time>
      </trkpt>
      <trkpt lat="43.31664" lon="3.47782">
        <ele>26</ele>
        <time>2011-07-25 14:20:51 +0000</time>
      </trkpt>
      <trkpt lat="43.31672" lon="3.47786">
        <ele>26</ele>
        <time>2011-07-25 14:21:02 +0000</time>
      </trkpt>
      <trkpt lat="43.31698" lon="3.47798">
        <ele>25</ele>
        <time>2011-07-25 14:21:14 +0000</time>
      </trkpt>
      <trkpt lat="43.31722" lon="3.47875">
        <ele>21</ele>
        <time>2011-07-25 14:21:26 +0000</time>
      </trkpt>
      <trkpt lat="43.31736" lon="3.4794">
        <ele>23</ele>
        <time>2011-07-25 14:21:37 +0000</time>
      </trkpt>
      <trkpt lat="43.31724" lon="3.47997">
        <ele>26</ele>
        <time>2011-07-25 14:21:48 +0000</time>
      </trkpt>
      <trkpt lat="43.31715" lon="3.48051">
        <ele>26</ele>
        <time>2011-07-25 14:21:59 +0000</time>
      </trkpt>
      <trkpt lat="43.31713" lon="3.48116">
        <ele>25</ele>
        <time>2011-07-25 14:22:11 +0000</time>
      </trkpt>
      <trkpt lat="43.31721" lon="3.48192">
        <ele>27</ele>
        <time>2011-07-25 14:22:23 +0000</time>
      </trkpt>
      <trkpt lat="43.31755" lon="3.48225">
        <ele>25</ele>
        <time>2011-07-25 14:22:35 +0000</time>
      </trkpt>
      <trkpt lat="43.31789" lon="3.48261">
        <ele>28</ele>
        <time>2011-07-25 14:22:46 +0000</time>
      </trkpt>
      <trkpt lat="43.31833" lon="3.4833">
        <ele>27</ele>
        <time>2011-07-25 14:22:58 +0000</time>
      </trkpt>
      <trkpt lat="43.31913" lon="3.48299">
        <ele>25</ele>
        <time>2011-07-25 14:23:10 +0000</time>
      </trkpt>
      <trkpt lat="43.31952" lon="3.48361">
        <ele>25</ele>
        <time>2011-07-25 14:23:21 +0000</time>
      </trkpt>
      <trkpt lat="43.31963" lon="3.48421">
        <ele>24</ele>
        <time>2011-07-25 14:23:32 +0000</time>
      </trkpt>
      <trkpt lat="43.31963" lon="3.48482">
        <ele>29</ele>
        <time>2011-07-25 14:23:43 +0000</time>
      </trkpt>
      <trkpt lat="43.31965" lon="3.48544">
        <ele>30</ele>
        <time>2011-07-25 14:23:55 +0000</time>
      </trkpt>
      <trkpt lat="43.31963" lon="3.48577">
        <ele>28</ele>
        <time>2011-07-25 14:24:06 +0000</time>
      </trkpt>
      <trkpt lat="43.3194" lon="3.48628">
        <ele>26</ele>
        <time>2011-07-25 14:24:17 +0000</time>
      </trkpt>
      <trkpt lat="43.31921" lon="3.48653">
        <ele>23</ele>
        <time>2011-07-25 14:24:28 +0000</time>
      </trkpt>
      <trkpt lat="43.31921" lon="3.48653">
        <ele>23</ele>
        <time>2011-07-25 14:24:40 +0000</time>
      </trkpt>
      <trkpt lat="43.31859" lon="3.48697">
        <ele>13</ele>
        <time>2011-07-25 14:24:52 +0000</time>
      </trkpt>
      <trkpt lat="43.31815" lon="3.48728">
        <ele>9</ele>
        <time>2011-07-25 14:25:04 +0000</time>
      </trkpt>
      <trkpt lat="43.31775" lon="3.48744">
        <ele>6</ele>
        <time>2011-07-25 14:25:15 +0000</time>
      </trkpt>
      <trkpt lat="43.31723" lon="3.48771">
        <ele>3</ele>
        <time>2011-07-25 14:25:27 +0000</time>
      </trkpt>
      <trkpt lat="43.31683" lon="3.48795">
        <ele>2.5</ele>
        <time>2011-07-25 14:25:38 +0000</time>
      </trkpt>
      <trkpt lat="43.31642" lon="3.48825">
        <ele>-2</ele>
        <time>2011-07-25 14:25:50 +0000</time>
      </trkpt>
      <trkpt lat="43.31617" lon="3.48848">
        <ele>-2</ele>
        <time>2011-07-25 14:26:01 +0000</time>
      </trkpt>
      <trkpt lat="43.31603" lon="3.48865">
        <ele>-2</ele>
        <time>2011-07-25 14:26:13 +0000</time>
      </trkpt>
      <trkpt lat="43.31566" lon="3.48933">
        <ele>-2</ele>
        <time>2011-07-25 14:26:25 +0000</time>
      </trkpt>
      <trkpt lat="43.31557" lon="3.48976">
        <ele>-2</ele>
        <time>2011-07-25 14:26:37 +0000</time>
      </trkpt>
      <trkpt lat="43.31546" lon="3.49013">
        <ele>-2</ele>
        <time>2011-07-25 14:26:49 +0000</time>
      </trkpt>
      <trkpt lat="43.31521" lon="3.49086">
        <ele>-1</ele>
        <time>2011-07-25 14:27:01 +0000</time>
      </trkpt>
      <trkpt lat="43.31507" lon="3.49126">
        <ele>2.4</ele>
        <time>2011-07-25 14:27:12 +0000</time>
      </trkpt>
      <trkpt lat="43.31476" lon="3.49217">
        <ele>-1</ele>
        <time>2011-07-25 14:27:24 +0000</time>
      </trkpt>
      <trkpt lat="43.31451" lon="3.49284">
        <ele>2.2</ele>
        <time>2011-07-25 14:27:36 +0000</time>
      </trkpt>
      <trkpt lat="43.31437" lon="3.49317">
        <ele>2.4</ele>
        <time>2011-07-25 14:27:47 +0000</time>
      </trkpt>
      <trkpt lat="43.31423" lon="3.49353">
        <ele>3.1</ele>
        <time>2011-07-25 14:27:59 +0000</time>
      </trkpt>
      <trkpt lat="43.31393" lon="3.49421">
        <ele>3.5</ele>
        <time>2011-07-25 14:28:10 +0000</time>
      </trkpt>
      <trkpt lat="43.31376" lon="3.49452">
        <ele>2.6</ele>
        <time>2011-07-25 14:28:22 +0000</time>
      </trkpt>
      <trkpt lat="43.31358" lon="3.49481">
        <ele>2.8</ele>
        <time>2011-07-25 14:28:34 +0000</time>
      </trkpt>
      <trkpt lat="43.31327" lon="3.49546">
        <ele>2.3</ele>
        <time>2011-07-25 14:28:46 +0000</time>
      </trkpt>
      <trkpt lat="43.31314" lon="3.49579">
        <ele>3.6</ele>
        <time>2011-07-25 14:28:57 +0000</time>
      </trkpt>
      <trkpt lat="43.31275" lon="3.49706">
        <ele>3.4</ele>
        <time>2011-07-25 14:29:08 +0000</time>
      </trkpt>
      <trkpt lat="43.31268" lon="3.49745">
        <ele>3</ele>
        <time>2011-07-25 14:29:19 +0000</time>
      </trkpt>
      <trkpt lat="43.31279" lon="3.49829">
        <ele>4.2</ele>
        <time>2011-07-25 14:29:30 +0000</time>
      </trkpt>
      <trkpt lat="43.31297" lon="3.49862">
        <ele>2.7</ele>
        <time>2011-07-25 14:29:41 +0000</time>
      </trkpt>
      <trkpt lat="43.31319" lon="3.49885">
        <ele>2.1</ele>
        <time>2011-07-25 14:29:53 +0000</time>
      </trkpt>
      <trkpt lat="43.31348" lon="3.499">
        <ele>3</ele>
        <time>2011-07-25 14:30:05 +0000</time>
      </trkpt>
      <trkpt lat="43.31348" lon="3.499">
        <ele>3</ele>
        <time>2011-07-25 14:30:16 +0000</time>
      </trkpt>
      <trkpt lat="43.31348" lon="3.499">
        <ele>3</ele>
        <time>2011-07-25 14:30:27 +0000</time>
      </trkpt>
      <trkpt lat="43.31311" lon="3.49942">
        <ele>8</ele>
        <time>2011-07-25 14:30:39 +0000</time>
      </trkpt>
      <trkpt lat="43.31282" lon="3.49938">
        <ele>8</ele>
        <time>2011-07-25 14:30:51 +0000</time>
      </trkpt>
      <trkpt lat="43.31252" lon="3.49926">
        <ele>7</ele>
        <time>2011-07-25 14:31:03 +0000</time>
      </trkpt>
      <trkpt lat="43.31203" lon="3.49887">
        <ele>8</ele>
        <time>2011-07-25 14:31:15 +0000</time>
      </trkpt>
      <trkpt lat="43.31179" lon="3.49862">
        <ele>8</ele>
        <time>2011-07-25 14:31:29 +0000</time>
      </trkpt>
      <trkpt lat="43.31149" lon="3.49821">
        <ele>8</ele>
        <time>2011-07-25 14:31:40 +0000</time>
      </trkpt>
      <trkpt lat="43.31119" lon="3.49804">
        <ele>8</ele>
        <time>2011-07-25 14:31:52 +0000</time>
      </trkpt>
      <trkpt lat="43.31084" lon="3.49823">
        <ele>7</ele>
        <time>2011-07-25 14:32:13 +0000</time>
      </trkpt>
      <trkpt lat="43.31062" lon="3.49848">
        <ele>7</ele>
        <time>2011-07-25 14:32:24 +0000</time>
      </trkpt>
      <trkpt lat="43.31034" lon="3.49854">
        <ele>8</ele>
        <time>2011-07-25 14:32:36 +0000</time>
      </trkpt>
      <trkpt lat="43.31014" lon="3.49855">
        <ele>8</ele>
        <time>2011-07-25 14:32:47 +0000</time>
      </trkpt>
      <trkpt lat="43.30985" lon="3.49856">
        <ele>8</ele>
        <time>2011-07-25 14:32:59 +0000</time>
      </trkpt>
      <trkpt lat="43.30957" lon="3.49852">
        <ele>9</ele>
        <time>2011-07-25 14:33:11 +0000</time>
      </trkpt>
      <trkpt lat="43.30929" lon="3.49861">
        <ele>8</ele>
        <time>2011-07-25 14:33:22 +0000</time>
      </trkpt>
      <trkpt lat="43.30885" lon="3.49921">
        <ele>7</ele>
        <time>2011-07-25 14:33:34 +0000</time>
      </trkpt>
      <trkpt lat="43.30851" lon="3.4996">
        <ele>6</ele>
        <time>2011-07-25 14:33:45 +0000</time>
      </trkpt>
      <trkpt lat="43.30828" lon="3.49983">
        <ele>6</ele>
        <time>2011-07-25 14:33:56 +0000</time>
      </trkpt>
      <trkpt lat="43.30804" lon="3.50007">
        <ele>7</ele>
        <time>2011-07-25 14:34:08 +0000</time>
      </trkpt>
      <trkpt lat="43.3079" lon="3.50039">
        <ele>9</ele>
        <time>2011-07-25 14:34:20 +0000</time>
      </trkpt>
      <trkpt lat="43.30779" lon="3.50102">
        <ele>11</ele>
        <time>2011-07-25 14:34:31 +0000</time>
      </trkpt>
      <trkpt lat="43.30778" lon="3.50117">
        <ele>11</ele>
        <time>2011-07-25 14:34:42 +0000</time>
      </trkpt>
      <trkpt lat="43.3077" lon="3.50127">
        <ele>11</ele>
        <time>2011-07-25 14:34:53 +0000</time>
      </trkpt>
      <trkpt lat="43.30742" lon="3.50164">
        <ele>10</ele>
        <time>2011-07-25 14:35:05 +0000</time>
      </trkpt>
      <trkpt lat="43.30726" lon="3.50244">
        <ele>8</ele>
        <time>2011-07-25 14:35:16 +0000</time>
      </trkpt>
      <trkpt lat="43.30732" lon="3.50317">
        <ele>9</ele>
        <time>2011-07-25 14:35:28 +0000</time>
      </trkpt>
      <trkpt lat="43.30737" lon="3.50386">
        <ele>10</ele>
        <time>2011-07-25 14:35:39 +0000</time>
      </trkpt>
      <trkpt lat="43.30739" lon="3.50485">
        <ele>10</ele>
        <time>2011-07-25 14:35:50 +0000</time>
      </trkpt>
      <trkpt lat="43.30727" lon="3.50588">
        <ele>11</ele>
        <time>2011-07-25 14:36:05 +0000</time>
      </trkpt>
      <trkpt lat="43.30678" lon="3.50611">
        <ele>13</ele>
        <time>2011-07-25 14:36:17 +0000</time>
      </trkpt>
      <trkpt lat="43.30639" lon="3.50619">
        <ele>13</ele>
        <time>2011-07-25 14:36:28 +0000</time>
      </trkpt>
      <trkpt lat="43.30601" lon="3.50587">
        <ele>14</ele>
        <time>2011-07-25 14:36:40 +0000</time>
      </trkpt>
      <trkpt lat="43.30559" lon="3.50553">
        <ele>15</ele>
        <time>2011-07-25 14:36:51 +0000</time>
      </trkpt>
      <trkpt lat="43.30528" lon="3.50511">
        <ele>16</ele>
        <time>2011-07-25 14:37:03 +0000</time>
      </trkpt>
      <trkpt lat="43.30518" lon="3.50487">
        <ele>18</ele>
        <time>2011-07-25 14:37:15 +0000</time>
      </trkpt>
      <trkpt lat="43.30499" lon="3.50456">
        <ele>21</ele>
        <time>2011-07-25 14:37:26 +0000</time>
      </trkpt>
      <trkpt lat="43.30461" lon="3.50416">
        <ele>19</ele>
        <time>2011-07-25 14:37:37 +0000</time>
      </trkpt>
      <trkpt lat="43.30447" lon="3.50412">
        <ele>19</ele>
        <time>2011-07-25 14:37:49 +0000</time>
      </trkpt>
      <trkpt lat="43.3042" lon="3.50421">
        <ele>18</ele>
        <time>2011-07-25 14:38:00 +0000</time>
      </trkpt>
      <trkpt lat="43.30385" lon="3.50457">
        <ele>19</ele>
        <time>2011-07-25 14:38:12 +0000</time>
      </trkpt>
      <trkpt lat="43.30354" lon="3.50494">
        <ele>21</ele>
        <time>2011-07-25 14:38:23 +0000</time>
      </trkpt>
      <trkpt lat="43.30353" lon="3.50496">
        <ele>21</ele>
        <time>2011-07-25 14:38:35 +0000</time>
      </trkpt>
      <trkpt lat="43.3032" lon="3.50543">
        <ele>19</ele>
        <time>2011-07-25 14:38:46 +0000</time>
      </trkpt>
      <trkpt lat="43.30275" lon="3.50587">
        <ele>18</ele>
        <time>2011-07-25 14:38:58 +0000</time>
      </trkpt>
      <trkpt lat="43.30242" lon="3.50605">
        <ele>16</ele>
        <time>2011-07-25 14:39:10 +0000</time>
      </trkpt>
      <trkpt lat="43.30218" lon="3.50616">
        <ele>15</ele>
        <time>2011-07-25 14:39:22 +0000</time>
      </trkpt>
      <trkpt lat="43.3019" lon="3.50624">
        <ele>14</ele>
        <time>2011-07-25 14:39:34 +0000</time>
      </trkpt>
      <trkpt lat="43.30157" lon="3.50649">
        <ele>13</ele>
        <time>2011-07-25 14:39:45 +0000</time>
      </trkpt>
      <trkpt lat="43.30132" lon="3.50673">
        <ele>13</ele>
        <time>2011-07-25 14:39:57 +0000</time>
      </trkpt>
      <trkpt lat="43.30088" lon="3.50691">
        <ele>14</ele>
        <time>2011-07-25 14:40:08 +0000</time>
      </trkpt>
      <trkpt lat="43.30048" lon="3.50719">
        <ele>17</ele>
        <time>2011-07-25 14:40:20 +0000</time>
      </trkpt>
      <trkpt lat="43.30049" lon="3.50719">
        <ele>18</ele>
        <time>2011-07-25 14:40:32 +0000</time>
      </trkpt>
      <trkpt lat="43.30022" lon="3.50728">
        <ele>21</ele>
        <time>2011-07-25 14:40:44 +0000</time>
      </trkpt>
      <trkpt lat="43.29993" lon="3.50724">
        <ele>22</ele>
        <time>2011-07-25 14:40:56 +0000</time>
      </trkpt>
      <trkpt lat="43.29966" lon="3.5072">
        <ele>22</ele>
        <time>2011-07-25 14:41:07 +0000</time>
      </trkpt>
      <trkpt lat="43.29939" lon="3.50715">
        <ele>26</ele>
        <time>2011-07-25 14:41:19 +0000</time>
      </trkpt>
      <trkpt lat="43.29939" lon="3.50715">
        <ele>26</ele>
        <time>2011-07-25 14:41:30 +0000</time>
      </trkpt>
      <trkpt lat="43.29939" lon="3.50715">
        <ele>26</ele>
        <time>2011-07-25 14:41:42 +0000</time>
      </trkpt>
      <trkpt lat="43.2991" lon="3.50709">
        <ele>28</ele>
        <time>2011-07-25 14:41:54 +0000</time>
      </trkpt>
      <trkpt lat="43.2991" lon="3.50709">
        <ele>28</ele>
        <time>2011-07-25 14:42:06 +0000</time>
      </trkpt>
      <trkpt lat="43.2991" lon="3.50709">
        <ele>28</ele>
        <time>2011-07-25 14:42:17 +0000</time>
      </trkpt>
      <trkpt lat="43.29887" lon="3.50696">
        <ele>32</ele>
        <time>2011-07-25 14:42:29 +0000</time>
      </trkpt>
      <trkpt lat="43.29887" lon="3.50696">
        <ele>32</ele>
        <time>2011-07-25 14:42:40 +0000</time>
      </trkpt>
      <trkpt lat="43.29887" lon="3.50696">
        <ele>32</ele>
        <time>2011-07-25 14:42:51 +0000</time>
      </trkpt>
      <trkpt lat="43.29887" lon="3.50696">
        <ele>32</ele>
        <time>2011-07-25 14:43:03 +0000</time>
      </trkpt>
      <trkpt lat="43.29887" lon="3.50696">
        <ele>32</ele>
        <time>2011-07-25 14:43:15 +0000</time>
      </trkpt>
      <trkpt lat="43.2986" lon="3.5069">
        <ele>39</ele>
        <time>2011-07-25 14:43:27 +0000</time>
      </trkpt>
      <trkpt lat="43.29833" lon="3.50676">
        <ele>43</ele>
        <time>2011-07-25 14:43:38 +0000</time>
      </trkpt>
      <trkpt lat="43.29833" lon="3.50676">
        <ele>43</ele>
        <time>2011-07-25 14:43:49 +0000</time>
      </trkpt>
      <trkpt lat="43.29804" lon="3.50667">
        <ele>45</ele>
        <time>2011-07-25 14:44:01 +0000</time>
      </trkpt>
      <trkpt lat="43.2978" lon="3.50649">
        <ele>45</ele>
        <time>2011-07-25 14:44:12 +0000</time>
      </trkpt>
      <trkpt lat="43.29758" lon="3.50622">
        <ele>46</ele>
        <time>2011-07-25 14:44:24 +0000</time>
      </trkpt>
      <trkpt lat="43.29758" lon="3.50622">
        <ele>46</ele>
        <time>2011-07-25 14:44:35 +0000</time>
      </trkpt>
      <trkpt lat="43.29737" lon="3.506">
        <ele>49</ele>
        <time>2011-07-25 14:44:47 +0000</time>
      </trkpt>
      <trkpt lat="43.29737" lon="3.506">
        <ele>49</ele>
        <time>2011-07-25 14:44:58 +0000</time>
      </trkpt>
      <trkpt lat="43.29737" lon="3.506">
        <ele>49</ele>
        <time>2011-07-25 14:45:09 +0000</time>
      </trkpt>
      <trkpt lat="43.29711" lon="3.5059">
        <ele>52</ele>
        <time>2011-07-25 14:45:21 +0000</time>
      </trkpt>
      <trkpt lat="43.29711" lon="3.5059">
        <ele>52</ele>
        <time>2011-07-25 14:45:33 +0000</time>
      </trkpt>
      <trkpt lat="43.29711" lon="3.5059">
        <ele>52</ele>
        <time>2011-07-25 14:45:45 +0000</time>
      </trkpt>
      <trkpt lat="43.29712" lon="3.50593">
        <ele>54</ele>
        <time>2011-07-25 14:45:57 +0000</time>
      </trkpt>
      <trkpt lat="43.29715" lon="3.50592">
        <ele>54</ele>
        <time>2011-07-25 14:46:08 +0000</time>
      </trkpt>
      <trkpt lat="43.29694" lon="3.50579">
        <ele>54</ele>
        <time>2011-07-25 14:46:19 +0000</time>
      </trkpt>
      <trkpt lat="43.29665" lon="3.50549">
        <ele>52</ele>
        <time>2011-07-25 14:46:30 +0000</time>
      </trkpt>
      <trkpt lat="43.29663" lon="3.50546">
        <ele>52</ele>
        <time>2011-07-25 14:46:41 +0000</time>
      </trkpt>
      <trkpt lat="43.29643" lon="3.50521">
        <ele>50</ele>
        <time>2011-07-25 14:46:53 +0000</time>
      </trkpt>
      <trkpt lat="43.29611" lon="3.50449">
        <ele>51</ele>
        <time>2011-07-25 14:47:04 +0000</time>
      </trkpt>
      <trkpt lat="43.29587" lon="3.50365">
        <ele>50</ele>
        <time>2011-07-25 14:47:16 +0000</time>
      </trkpt>
      <trkpt lat="43.29584" lon="3.50313">
        <ele>50</ele>
        <time>2011-07-25 14:47:27 +0000</time>
      </trkpt>
      <trkpt lat="43.29585" lon="3.50269">
        <ele>49</ele>
        <time>2011-07-25 14:47:38 +0000</time>
      </trkpt>
      <trkpt lat="43.29584" lon="3.50209">
        <ele>49</ele>
        <time>2011-07-25 14:47:49 +0000</time>
      </trkpt>
      <trkpt lat="43.29596" lon="3.50159">
        <ele>51</ele>
        <time>2011-07-25 14:48:01 +0000</time>
      </trkpt>
      <trkpt lat="43.29603" lon="3.50156">
        <ele>52</ele>
        <time>2011-07-25 14:48:13 +0000</time>
      </trkpt>
      <trkpt lat="43.2962" lon="3.50124">
        <ele>55</ele>
        <time>2011-07-25 14:48:25 +0000</time>
      </trkpt>
      <trkpt lat="43.2962" lon="3.50124">
        <ele>55</ele>
        <time>2011-07-25 14:48:37 +0000</time>
      </trkpt>
      <trkpt lat="43.29629" lon="3.50089">
        <ele>56</ele>
        <time>2011-07-25 14:48:48 +0000</time>
      </trkpt>
      <trkpt lat="43.29633" lon="3.50049">
        <ele>56</ele>
        <time>2011-07-25 14:49:00 +0000</time>
      </trkpt>
      <trkpt lat="43.29639" lon="3.50011">
        <ele>55</ele>
        <time>2011-07-25 14:49:12 +0000</time>
      </trkpt>
      <trkpt lat="43.29636" lon="3.49973">
        <ele>54</ele>
        <time>2011-07-25 14:49:24 +0000</time>
      </trkpt>
      <trkpt lat="43.29635" lon="3.49934">
        <ele>54</ele>
        <time>2011-07-25 14:49:36 +0000</time>
      </trkpt>
      <trkpt lat="43.2963" lon="3.49887">
        <ele>55</ele>
        <time>2011-07-25 14:49:47 +0000</time>
      </trkpt>
      <trkpt lat="43.29606" lon="3.49776">
        <ele>57</ele>
        <time>2011-07-25 14:49:58 +0000</time>
      </trkpt>
      <trkpt lat="43.29601" lon="3.49707">
        <ele>59</ele>
        <time>2011-07-25 14:50:10 +0000</time>
      </trkpt>
      <trkpt lat="43.29611" lon="3.49664">
        <ele>60</ele>
        <time>2011-07-25 14:50:22 +0000</time>
      </trkpt>
      <trkpt lat="43.29611" lon="3.49664">
        <ele>60</ele>
        <time>2011-07-25 14:50:33 +0000</time>
      </trkpt>
      <trkpt lat="43.29611" lon="3.49664">
        <ele>60</ele>
        <time>2011-07-25 14:50:45 +0000</time>
      </trkpt>
      <trkpt lat="43.29637" lon="3.49669">
        <ele>56</ele>
        <time>2011-07-25 14:50:57 +0000</time>
      </trkpt>
      <trkpt lat="43.29644" lon="3.49671">
        <ele>56</ele>
        <time>2011-07-25 14:51:09 +0000</time>
      </trkpt>
      <trkpt lat="43.29666" lon="3.49686">
        <ele>57</ele>
        <time>2011-07-25 14:51:20 +0000</time>
      </trkpt>
      <trkpt lat="43.29666" lon="3.49686">
        <ele>57</ele>
        <time>2011-07-25 14:51:32 +0000</time>
      </trkpt>
      <trkpt lat="43.29666" lon="3.49686">
        <ele>57</ele>
        <time>2011-07-25 14:51:43 +0000</time>
      </trkpt>
      <trkpt lat="43.29666" lon="3.49686">
        <ele>57</ele>
        <time>2011-07-25 14:51:55 +0000</time>
      </trkpt>
      <trkpt lat="43.29666" lon="3.49686">
        <ele>57</ele>
        <time>2011-07-25 14:52:07 +0000</time>
      </trkpt>
      <trkpt lat="43.29666" lon="3.49686">
        <ele>57</ele>
        <time>2011-07-25 14:52:19 +0000</time>
      </trkpt>
      <trkpt lat="43.29666" lon="3.49686">
        <ele>57</ele>
        <time>2011-07-25 14:52:31 +0000</time>
      </trkpt>
      <trkpt lat="43.29666" lon="3.49686">
        <ele>57</ele>
        <time>2011-07-25 14:52:42 +0000</time>
      </trkpt>
      <trkpt lat="43.29666" lon="3.49686">
        <ele>57</ele>
        <time>2011-07-25 14:52:54 +0000</time>
      </trkpt>
      <trkpt lat="43.29693" lon="3.49697">
        <ele>66</ele>
        <time>2011-07-25 14:53:06 +0000</time>
      </trkpt>
      <trkpt lat="43.29693" lon="3.49697">
        <ele>66</ele>
        <time>2011-07-25 14:53:18 +0000</time>
      </trkpt>
      <trkpt lat="43.29722" lon="3.49705">
        <ele>67</ele>
        <time>2011-07-25 14:53:30 +0000</time>
      </trkpt>
      <trkpt lat="43.29722" lon="3.49705">
        <ele>67</ele>
        <time>2011-07-25 14:53:41 +0000</time>
      </trkpt>
      <trkpt lat="43.2975" lon="3.49707">
        <ele>68</ele>
        <time>2011-07-25 14:53:52 +0000</time>
      </trkpt>
      <trkpt lat="43.2975" lon="3.49707">
        <ele>68</ele>
        <time>2011-07-25 14:54:04 +0000</time>
      </trkpt>
      <trkpt lat="43.29773" lon="3.49728">
        <ele>65</ele>
        <time>2011-07-25 14:54:16 +0000</time>
      </trkpt>
      <trkpt lat="43.29757" lon="3.49762">
        <ele>64</ele>
        <time>2011-07-25 14:54:27 +0000</time>
      </trkpt>
      <trkpt lat="43.29757" lon="3.49762">
        <ele>64</ele>
        <time>2011-07-25 14:54:38 +0000</time>
      </trkpt>
      <trkpt lat="43.29732" lon="3.49805">
        <ele>72</ele>
        <time>2011-07-25 14:54:49 +0000</time>
      </trkpt>
      <trkpt lat="43.29732" lon="3.49805">
        <ele>72</ele>
        <time>2011-07-25 14:55:01 +0000</time>
      </trkpt>
      <trkpt lat="43.29733" lon="3.49844">
        <ele>74</ele>
        <time>2011-07-25 14:55:13 +0000</time>
      </trkpt>
      <trkpt lat="43.29733" lon="3.49844">
        <ele>74</ele>
        <time>2011-07-25 14:55:24 +0000</time>
      </trkpt>
      <trkpt lat="43.29753" lon="3.49869">
        <ele>76</ele>
        <time>2011-07-25 14:55:36 +0000</time>
      </trkpt>
      <trkpt lat="43.29774" lon="3.49893">
        <ele>72</ele>
        <time>2011-07-25 14:55:48 +0000</time>
      </trkpt>
      <trkpt lat="43.29774" lon="3.49893">
        <ele>72</ele>
        <time>2011-07-25 14:55:59 +0000</time>
      </trkpt>
      <trkpt lat="43.29792" lon="3.49923">
        <ele>74</ele>
        <time>2011-07-25 14:56:10 +0000</time>
      </trkpt>
      <trkpt lat="43.29792" lon="3.49923">
        <ele>74</ele>
        <time>2011-07-25 14:56:21 +0000</time>
      </trkpt>
      <trkpt lat="43.29792" lon="3.49923">
        <ele>74</ele>
        <time>2011-07-25 14:56:33 +0000</time>
      </trkpt>
      <trkpt lat="43.29815" lon="3.49945">
        <ele>73</ele>
        <time>2011-07-25 14:56:45 +0000</time>
      </trkpt>
      <trkpt lat="43.29815" lon="3.49945">
        <ele>73</ele>
        <time>2011-07-25 14:56:56 +0000</time>
      </trkpt>
      <trkpt lat="43.29815" lon="3.49945">
        <ele>73</ele>
        <time>2011-07-25 14:57:07 +0000</time>
      </trkpt>
      <trkpt lat="43.29815" lon="3.49945">
        <ele>73</ele>
        <time>2011-07-25 14:57:19 +0000</time>
      </trkpt>
      <trkpt lat="43.29815" lon="3.49945">
        <ele>73</ele>
        <time>2011-07-25 14:57:30 +0000</time>
      </trkpt>
      <trkpt lat="43.29815" lon="3.49945">
        <ele>73</ele>
        <time>2011-07-25 14:57:42 +0000</time>
      </trkpt>
      <trkpt lat="43.29815" lon="3.49945">
        <ele>73</ele>
        <time>2011-07-25 14:57:53 +0000</time>
      </trkpt>
      <trkpt lat="43.29842" lon="3.49938">
        <ele>82</ele>
        <time>2011-07-25 14:58:04 +0000</time>
      </trkpt>
      <trkpt lat="43.29842" lon="3.49938">
        <ele>82</ele>
        <time>2011-07-25 14:58:16 +0000</time>
      </trkpt>
      <trkpt lat="43.29842" lon="3.49938">
        <ele>82</ele>
        <time>2011-07-25 14:58:28 +0000</time>
      </trkpt>
      <trkpt lat="43.29842" lon="3.49938">
        <ele>82</ele>
        <time>2011-07-25 14:58:40 +0000</time>
      </trkpt>
      <trkpt lat="43.29854" lon="3.49972">
        <ele>92</ele>
        <time>2011-07-25 14:58:51 +0000</time>
      </trkpt>
      <trkpt lat="43.29854" lon="3.49972">
        <ele>92</ele>
        <time>2011-07-25 14:59:03 +0000</time>
      </trkpt>
      <trkpt lat="43.29851" lon="3.50025">
        <ele>94</ele>
        <time>2011-07-25 14:59:14 +0000</time>
      </trkpt>
      <trkpt lat="43.29851" lon="3.50027">
        <ele>94</ele>
        <time>2011-07-25 14:59:25 +0000</time>
      </trkpt>
      <trkpt lat="43.2985" lon="3.50065">
        <ele>95</ele>
        <time>2011-07-25 14:59:36 +0000</time>
      </trkpt>
      <trkpt lat="43.29851" lon="3.50102">
        <ele>99</ele>
        <time>2011-07-25 14:59:48 +0000</time>
      </trkpt>
      <trkpt lat="43.29856" lon="3.50141">
        <ele>101</ele>
        <time>2011-07-25 15:00:00 +0000</time>
      </trkpt>
      <trkpt lat="43.29861" lon="3.50178">
        <ele>102</ele>
        <time>2011-07-25 15:00:11 +0000</time>
      </trkpt>
      <trkpt lat="43.29863" lon="3.50196">
        <ele>103</ele>
        <time>2011-07-25 15:00:22 +0000</time>
      </trkpt>
      <trkpt lat="43.29863" lon="3.50223">
        <ele>104</ele>
        <time>2011-07-25 15:00:33 +0000</time>
      </trkpt>
      <trkpt lat="43.29863" lon="3.50223">
        <ele>104</ele>
        <time>2011-07-25 15:00:45 +0000</time>
      </trkpt>
      <trkpt lat="43.29855" lon="3.50259">
        <ele>103</ele>
        <time>2011-07-25 15:00:56 +0000</time>
      </trkpt>
      <trkpt lat="43.29855" lon="3.50259">
        <ele>103</ele>
        <time>2011-07-25 15:01:08 +0000</time>
      </trkpt>
      <trkpt lat="43.29855" lon="3.50259">
        <ele>103</ele>
        <time>2011-07-25 15:01:19 +0000</time>
      </trkpt>
      <trkpt lat="43.29855" lon="3.50259">
        <ele>103</ele>
        <time>2011-07-25 15:01:31 +0000</time>
      </trkpt>
      <trkpt lat="43.29855" lon="3.50259">
        <ele>103</ele>
        <time>2011-07-25 15:01:44 +0000</time>
      </trkpt>
      <trkpt lat="43.29855" lon="3.50259">
        <ele>103</ele>
        <time>2011-07-25 15:01:55 +0000</time>
      </trkpt>
      <trkpt lat="43.29855" lon="3.50259">
        <ele>103</ele>
        <time>2011-07-25 15:02:07 +0000</time>
      </trkpt>
      <trkpt lat="43.29855" lon="3.50259">
        <ele>103</ele>
        <time>2011-07-25 15:02:18 +0000</time>
      </trkpt>
      <trkpt lat="43.29859" lon="3.50203">
        <ele>120</ele>
        <time>2011-07-25 15:07:20 +0000</time>
      </trkpt>
      <trkpt lat="43.29862" lon="3.50171">
        <ele>122</ele>
        <time>2011-07-25 15:07:32 +0000</time>
      </trkpt>
      <trkpt lat="43.29853" lon="3.50064">
        <ele>120</ele>
        <time>2011-07-25 15:07:43 +0000</time>
      </trkpt>
      <trkpt lat="43.29842" lon="3.49976">
        <ele>120</ele>
        <time>2011-07-25 15:07:55 +0000</time>
      </trkpt>
      <trkpt lat="43.29843" lon="3.49964">
        <ele>120</ele>
        <time>2011-07-25 15:08:06 +0000</time>
      </trkpt>
      <trkpt lat="43.29814" lon="3.49903">
        <ele>116</ele>
        <time>2011-07-25 15:08:21 +0000</time>
      </trkpt>
      <trkpt lat="43.29784" lon="3.49862">
        <ele>114</ele>
        <time>2011-07-25 15:08:33 +0000</time>
      </trkpt>
      <trkpt lat="43.29784" lon="3.49862">
        <ele>114</ele>
        <time>2011-07-25 15:08:44 +0000</time>
      </trkpt>
      <trkpt lat="43.29784" lon="3.49862">
        <ele>114</ele>
        <time>2011-07-25 15:08:56 +0000</time>
      </trkpt>
      <trkpt lat="43.29772" lon="3.49896">
        <ele>106</ele>
        <time>2011-07-25 15:09:08 +0000</time>
      </trkpt>
      <trkpt lat="43.29772" lon="3.49896">
        <ele>106</ele>
        <time>2011-07-25 15:09:19 +0000</time>
      </trkpt>
      <trkpt lat="43.29782" lon="3.49933">
        <ele>102</ele>
        <time>2011-07-25 15:09:31 +0000</time>
      </trkpt>
      <trkpt lat="43.29786" lon="3.49972">
        <ele>100</ele>
        <time>2011-07-25 15:09:42 +0000</time>
      </trkpt>
      <trkpt lat="43.29784" lon="3.50011">
        <ele>101</ele>
        <time>2011-07-25 15:09:53 +0000</time>
      </trkpt>
      <trkpt lat="43.29784" lon="3.50011">
        <ele>101</ele>
        <time>2011-07-25 15:10:05 +0000</time>
      </trkpt>
      <trkpt lat="43.29783" lon="3.5005">
        <ele>105</ele>
        <time>2011-07-25 15:10:16 +0000</time>
      </trkpt>
      <trkpt lat="43.29782" lon="3.50087">
        <ele>105</ele>
        <time>2011-07-25 15:10:28 +0000</time>
      </trkpt>
      <trkpt lat="43.29782" lon="3.50087">
        <ele>105</ele>
        <time>2011-07-25 15:10:39 +0000</time>
      </trkpt>
      <trkpt lat="43.29779" lon="3.50127">
        <ele>102</ele>
        <time>2011-07-25 15:10:51 +0000</time>
      </trkpt>
      <trkpt lat="43.29761" lon="3.50206">
        <ele>104</ele>
        <time>2011-07-25 15:11:03 +0000</time>
      </trkpt>
      <trkpt lat="43.29741" lon="3.50278">
        <ele>104</ele>
        <time>2011-07-25 15:11:14 +0000</time>
      </trkpt>
      <trkpt lat="43.29731" lon="3.50358">
        <ele>101</ele>
        <time>2011-07-25 15:11:25 +0000</time>
      </trkpt>
      <trkpt lat="43.29744" lon="3.50387">
        <ele>97</ele>
        <time>2011-07-25 15:11:36 +0000</time>
      </trkpt>
      <trkpt lat="43.29761" lon="3.50402">
        <ele>97</ele>
        <time>2011-07-25 15:11:47 +0000</time>
      </trkpt>
      <trkpt lat="43.29774" lon="3.50412">
        <ele>100</ele>
        <time>2011-07-25 15:11:59 +0000</time>
      </trkpt>
      <trkpt lat="43.29774" lon="3.50412">
        <ele>100</ele>
        <time>2011-07-25 15:12:10 +0000</time>
      </trkpt>
      <trkpt lat="43.29796" lon="3.50435">
        <ele>101</ele>
        <time>2011-07-25 15:12:21 +0000</time>
      </trkpt>
      <trkpt lat="43.29796" lon="3.50435">
        <ele>101</ele>
        <time>2011-07-25 15:12:33 +0000</time>
      </trkpt>
      <trkpt lat="43.29821" lon="3.50456">
        <ele>100</ele>
        <time>2011-07-25 15:12:44 +0000</time>
      </trkpt>
      <trkpt lat="43.29848" lon="3.50447">
        <ele>99</ele>
        <time>2011-07-25 15:12:55 +0000</time>
      </trkpt>
      <trkpt lat="43.29869" lon="3.50413">
        <ele>100</ele>
        <time>2011-07-25 15:13:07 +0000</time>
      </trkpt>
      <trkpt lat="43.29896" lon="3.504">
        <ele>101</ele>
        <time>2011-07-25 15:13:18 +0000</time>
      </trkpt>
      <trkpt lat="43.29921" lon="3.50419">
        <ele>98</ele>
        <time>2011-07-25 15:13:30 +0000</time>
      </trkpt>
      <trkpt lat="43.29921" lon="3.50419">
        <ele>98</ele>
        <time>2011-07-25 15:13:41 +0000</time>
      </trkpt>
      <trkpt lat="43.29921" lon="3.50419">
        <ele>98</ele>
        <time>2011-07-25 15:13:52 +0000</time>
      </trkpt>
      <trkpt lat="43.29949" lon="3.50413">
        <ele>90</ele>
        <time>2011-07-25 15:14:04 +0000</time>
      </trkpt>
      <trkpt lat="43.29949" lon="3.50413">
        <ele>90</ele>
        <time>2011-07-25 15:14:16 +0000</time>
      </trkpt>
      <trkpt lat="43.29976" lon="3.50404">
        <ele>91</ele>
        <time>2011-07-25 15:14:28 +0000</time>
      </trkpt>
      <trkpt lat="43.29976" lon="3.50404">
        <ele>91</ele>
        <time>2011-07-25 15:14:39 +0000</time>
      </trkpt>
      <trkpt lat="43.29998" lon="3.50429">
        <ele>86</ele>
        <time>2011-07-25 15:14:51 +0000</time>
      </trkpt>
      <trkpt lat="43.29998" lon="3.50429">
        <ele>86</ele>
        <time>2011-07-25 15:15:03 +0000</time>
      </trkpt>
      <trkpt lat="43.30006" lon="3.50467">
        <ele>85</ele>
        <time>2011-07-25 15:15:14 +0000</time>
      </trkpt>
      <trkpt lat="43.30008" lon="3.50507">
        <ele>84</ele>
        <time>2011-07-25 15:15:25 +0000</time>
      </trkpt>
      <trkpt lat="43.30008" lon="3.50507">
        <ele>84</ele>
        <time>2011-07-25 15:15:36 +0000</time>
      </trkpt>
      <trkpt lat="43.30008" lon="3.50507">
        <ele>84</ele>
        <time>2011-07-25 15:15:47 +0000</time>
      </trkpt>
      <trkpt lat="43.30008" lon="3.50507">
        <ele>84</ele>
        <time>2011-07-25 15:15:59 +0000</time>
      </trkpt>
      <trkpt lat="43.30008" lon="3.50507">
        <ele>84</ele>
        <time>2011-07-25 15:16:12 +0000</time>
      </trkpt>
      <trkpt lat="43.30008" lon="3.50507">
        <ele>84</ele>
        <time>2011-07-25 15:16:23 +0000</time>
      </trkpt>
      <trkpt lat="43.30008" lon="3.50507">
        <ele>84</ele>
        <time>2011-07-25 15:16:34 +0000</time>
      </trkpt>
      <trkpt lat="43.30018" lon="3.50512">
        <ele>76</ele>
        <time>2011-07-25 15:16:46 +0000</time>
      </trkpt>
      <trkpt lat="43.30016" lon="3.50515">
        <ele>71</ele>
        <time>2011-07-25 15:16:58 +0000</time>
      </trkpt>
      <trkpt lat="43.30014" lon="3.50518">
        <ele>71</ele>
        <time>2011-07-25 15:17:09 +0000</time>
      </trkpt>
      <trkpt lat="43.30014" lon="3.50518">
        <ele>71</ele>
        <time>2011-07-25 15:17:22 +0000</time>
      </trkpt>
      <trkpt lat="43.30014" lon="3.50518">
        <ele>71</ele>
        <time>2011-07-25 15:17:34 +0000</time>
      </trkpt>
      <trkpt lat="43.30014" lon="3.50518">
        <ele>71</ele>
        <time>2011-07-25 15:17:46 +0000</time>
      </trkpt>
      <trkpt lat="43.30008" lon="3.50533">
        <ele>67</ele>
        <time>2011-07-25 15:17:57 +0000</time>
      </trkpt>
      <trkpt lat="43.30007" lon="3.50571">
        <ele>64</ele>
        <time>2011-07-25 15:18:09 +0000</time>
      </trkpt>
      <trkpt lat="43.30001" lon="3.50632">
        <ele>63</ele>
        <time>2011-07-25 15:18:20 +0000</time>
      </trkpt>
      <trkpt lat="43.30001" lon="3.50632">
        <ele>63</ele>
        <time>2011-07-25 15:18:31 +0000</time>
      </trkpt>
      <trkpt lat="43.29996" lon="3.50713">
        <ele>60</ele>
        <time>2011-07-25 15:18:43 +0000</time>
      </trkpt>
      <trkpt lat="43.30008" lon="3.50748">
        <ele>56</ele>
        <time>2011-07-25 15:18:55 +0000</time>
      </trkpt>
      <trkpt lat="43.30008" lon="3.50748">
        <ele>56</ele>
        <time>2011-07-25 15:19:07 +0000</time>
      </trkpt>
      <trkpt lat="43.30008" lon="3.50748">
        <ele>56</ele>
        <time>2011-07-25 15:19:19 +0000</time>
      </trkpt>
      <trkpt lat="43.30014" lon="3.50711">
        <ele>57</ele>
        <time>2011-07-25 15:19:31 +0000</time>
      </trkpt>
      <trkpt lat="43.30011" lon="3.50586">
        <ele>45</ele>
        <time>2011-07-25 15:20:16 +0000</time>
      </trkpt>
      <trkpt lat="43.29984" lon="3.50702">
        <ele>44</ele>
        <time>2011-07-25 15:20:27 +0000</time>
      </trkpt>
      <trkpt lat="43.30033" lon="3.50735">
        <ele>41</ele>
        <time>2011-07-25 15:20:39 +0000</time>
      </trkpt>
      <trkpt lat="43.30045" lon="3.5073">
        <ele>40</ele>
        <time>2011-07-25 15:20:52 +0000</time>
      </trkpt>
      <trkpt lat="43.30045" lon="3.5073">
        <ele>40</ele>
        <time>2011-07-25 15:21:03 +0000</time>
      </trkpt>
      <trkpt lat="43.30045" lon="3.5073">
        <ele>40</ele>
        <time>2011-07-25 15:21:15 +0000</time>
      </trkpt>
      <trkpt lat="43.3007" lon="3.50743">
        <ele>28</ele>
        <time>2011-07-25 15:21:26 +0000</time>
      </trkpt>
      <trkpt lat="43.30152" lon="3.50741">
        <ele>27</ele>
        <time>2011-07-25 15:21:38 +0000</time>
      </trkpt>
      <trkpt lat="43.30187" lon="3.50743">
        <ele>27</ele>
        <time>2011-07-25 15:21:50 +0000</time>
      </trkpt>
      <trkpt lat="43.30187" lon="3.50743">
        <ele>27</ele>
        <time>2011-07-25 15:22:22 +0000</time>
      </trkpt>
      <trkpt lat="43.30187" lon="3.50743">
        <ele>27</ele>
        <time>2011-07-25 15:22:34 +0000</time>
      </trkpt>
      <trkpt lat="43.3016" lon="3.50744">
        <ele>24</ele>
        <time>2011-07-25 15:22:46 +0000</time>
      </trkpt>
      <trkpt lat="43.3016" lon="3.50744">
        <ele>24</ele>
        <time>2011-07-25 15:22:58 +0000</time>
      </trkpt>
      <trkpt lat="43.3016" lon="3.50744">
        <ele>24</ele>
        <time>2011-07-25 15:23:09 +0000</time>
      </trkpt>
      <trkpt lat="43.3016" lon="3.50744">
        <ele>24</ele>
        <time>2011-07-25 15:23:21 +0000</time>
      </trkpt>
      <trkpt lat="43.3016" lon="3.50744">
        <ele>24</ele>
        <time>2011-07-25 15:23:33 +0000</time>
      </trkpt>
      <trkpt lat="43.3016" lon="3.50744">
        <ele>24</ele>
        <time>2011-07-25 15:23:45 +0000</time>
      </trkpt>
      <trkpt lat="43.30172" lon="3.50711">
        <ele>19</ele>
        <time>2011-07-25 15:23:57 +0000</time>
      </trkpt>
      <trkpt lat="43.30175" lon="3.50673">
        <ele>21</ele>
        <time>2011-07-25 15:24:09 +0000</time>
      </trkpt>
      <trkpt lat="43.30175" lon="3.50673">
        <ele>21</ele>
        <time>2011-07-25 15:24:20 +0000</time>
      </trkpt>
      <trkpt lat="43.30175" lon="3.50673">
        <ele>21</ele>
        <time>2011-07-25 15:24:31 +0000</time>
      </trkpt>
      <trkpt lat="43.30199" lon="3.50636">
        <ele>23</ele>
        <time>2011-07-25 15:24:42 +0000</time>
      </trkpt>
      <trkpt lat="43.302" lon="3.50638">
        <ele>23</ele>
        <time>2011-07-25 15:24:53 +0000</time>
      </trkpt>
      <trkpt lat="43.30193" lon="3.50655">
        <ele>18</ele>
        <time>2011-07-25 15:25:05 +0000</time>
      </trkpt>
      <trkpt lat="43.30193" lon="3.50655">
        <ele>18</ele>
        <time>2011-07-25 15:25:17 +0000</time>
      </trkpt>
      <trkpt lat="43.30193" lon="3.50655">
        <ele>18</ele>
        <time>2011-07-25 15:25:28 +0000</time>
      </trkpt>
      <trkpt lat="43.30193" lon="3.50655">
        <ele>18</ele>
        <time>2011-07-25 15:25:39 +0000</time>
      </trkpt>
      <trkpt lat="43.30193" lon="3.50655">
        <ele>18</ele>
        <time>2011-07-25 15:25:50 +0000</time>
      </trkpt>
      <trkpt lat="43.30255" lon="3.50607">
        <ele>14</ele>
        <time>2011-07-25 15:26:01 +0000</time>
      </trkpt>
      <trkpt lat="43.30261" lon="3.5058">
        <ele>13</ele>
        <time>2011-07-25 15:26:13 +0000</time>
      </trkpt>
      <trkpt lat="43.30298" lon="3.50563">
        <ele>17</ele>
        <time>2011-07-25 15:26:25 +0000</time>
      </trkpt>
      <trkpt lat="43.30325" lon="3.50544">
        <ele>17</ele>
        <time>2011-07-25 15:26:37 +0000</time>
      </trkpt>
      <trkpt lat="43.30353" lon="3.50511">
        <ele>18</ele>
        <time>2011-07-25 15:26:48 +0000</time>
      </trkpt>
      <trkpt lat="43.30379" lon="3.50479">
        <ele>18</ele>
        <time>2011-07-25 15:26:59 +0000</time>
      </trkpt>
      <trkpt lat="43.30404" lon="3.50448">
        <ele>17</ele>
        <time>2011-07-25 15:27:11 +0000</time>
      </trkpt>
      <trkpt lat="43.30413" lon="3.50437">
        <ele>18</ele>
        <time>2011-07-25 15:27:22 +0000</time>
      </trkpt>
      <trkpt lat="43.30452" lon="3.50419">
        <ele>20</ele>
        <time>2011-07-25 15:27:33 +0000</time>
      </trkpt>
      <trkpt lat="43.30492" lon="3.50438">
        <ele>18</ele>
        <time>2011-07-25 15:27:44 +0000</time>
      </trkpt>
      <trkpt lat="43.30521" lon="3.50478">
        <ele>22</ele>
        <time>2011-07-25 15:27:56 +0000</time>
      </trkpt>
      <trkpt lat="43.30557" lon="3.50533">
        <ele>26</ele>
        <time>2011-07-25 15:28:08 +0000</time>
      </trkpt>
      <trkpt lat="43.30597" lon="3.50576">
        <ele>29</ele>
        <time>2011-07-25 15:28:19 +0000</time>
      </trkpt>
      <trkpt lat="43.30662" lon="3.50589">
        <ele>31</ele>
        <time>2011-07-25 15:28:31 +0000</time>
      </trkpt>
      <trkpt lat="43.30721" lon="3.50573">
        <ele>32</ele>
        <time>2011-07-25 15:28:43 +0000</time>
      </trkpt>
      <trkpt lat="43.30745" lon="3.50529">
        <ele>34</ele>
        <time>2011-07-25 15:28:54 +0000</time>
      </trkpt>
      <trkpt lat="43.30751" lon="3.50497">
        <ele>33</ele>
        <time>2011-07-25 15:29:06 +0000</time>
      </trkpt>
      <trkpt lat="43.30751" lon="3.50497">
        <ele>33</ele>
        <time>2011-07-25 15:29:17 +0000</time>
      </trkpt>
      <trkpt lat="43.30746" lon="3.50432">
        <ele>36</ele>
        <time>2011-07-25 15:29:29 +0000</time>
      </trkpt>
      <trkpt lat="43.30744" lon="3.50363">
        <ele>35</ele>
        <time>2011-07-25 15:29:41 +0000</time>
      </trkpt>
      <trkpt lat="43.30742" lon="3.50325">
        <ele>30</ele>
        <time>2011-07-25 15:29:52 +0000</time>
      </trkpt>
      <trkpt lat="43.30742" lon="3.50325">
        <ele>30</ele>
        <time>2011-07-25 15:30:04 +0000</time>
      </trkpt>
      <trkpt lat="43.3075" lon="3.50249">
        <ele>25</ele>
        <time>2011-07-25 15:30:15 +0000</time>
      </trkpt>
      <trkpt lat="43.30763" lon="3.50181">
        <ele>25</ele>
        <time>2011-07-25 15:30:26 +0000</time>
      </trkpt>
      <trkpt lat="43.3077" lon="3.50151">
        <ele>24</ele>
        <time>2011-07-25 15:30:38 +0000</time>
      </trkpt>
      <trkpt lat="43.3077" lon="3.50151">
        <ele>24</ele>
        <time>2011-07-25 15:30:49 +0000</time>
      </trkpt>
      <trkpt lat="43.3077" lon="3.50151">
        <ele>24</ele>
        <time>2011-07-25 15:31:01 +0000</time>
      </trkpt>
      <trkpt lat="43.30773" lon="3.50117">
        <ele>18</ele>
        <time>2011-07-25 15:31:13 +0000</time>
      </trkpt>
      <trkpt lat="43.30783" lon="3.50045">
        <ele>18</ele>
        <time>2011-07-25 15:31:24 +0000</time>
      </trkpt>
      <trkpt lat="43.30788" lon="3.50013">
        <ele>18</ele>
        <time>2011-07-25 15:31:36 +0000</time>
      </trkpt>
      <trkpt lat="43.30788" lon="3.50013">
        <ele>18</ele>
        <time>2011-07-25 15:31:47 +0000</time>
      </trkpt>
      <trkpt lat="43.30828" lon="3.49946">
        <ele>17</ele>
        <time>2011-07-25 15:31:59 +0000</time>
      </trkpt>
      <trkpt lat="43.30879" lon="3.4991">
        <ele>16</ele>
        <time>2011-07-25 15:32:11 +0000</time>
      </trkpt>
      <trkpt lat="43.30913" lon="3.49864">
        <ele>15</ele>
        <time>2011-07-25 15:32:22 +0000</time>
      </trkpt>
      <trkpt lat="43.3094" lon="3.49837">
        <ele>15</ele>
        <time>2011-07-25 15:32:34 +0000</time>
      </trkpt>
      <trkpt lat="43.3094" lon="3.49837">
        <ele>15</ele>
        <time>2011-07-25 15:32:45 +0000</time>
      </trkpt>
      <trkpt lat="43.30969" lon="3.49844">
        <ele>18</ele>
        <time>2011-07-25 15:32:56 +0000</time>
      </trkpt>
      <trkpt lat="43.3102" lon="3.49867">
        <ele>17</ele>
        <time>2011-07-25 15:33:08 +0000</time>
      </trkpt>
      <trkpt lat="43.31035" lon="3.49871">
        <ele>17</ele>
        <time>2011-07-25 15:33:19 +0000</time>
      </trkpt>
      <trkpt lat="43.31035" lon="3.49871">
        <ele>17</ele>
        <time>2011-07-25 15:33:31 +0000</time>
      </trkpt>
      <trkpt lat="43.31086" lon="3.49825">
        <ele>25</ele>
        <time>2011-07-25 15:33:42 +0000</time>
      </trkpt>
      <trkpt lat="43.31136" lon="3.49806">
        <ele>25</ele>
        <time>2011-07-25 15:33:53 +0000</time>
      </trkpt>
      <trkpt lat="43.31161" lon="3.49842">
        <ele>25</ele>
        <time>2011-07-25 15:34:05 +0000</time>
      </trkpt>
      <trkpt lat="43.31178" lon="3.49885">
        <ele>24</ele>
        <time>2011-07-25 15:34:17 +0000</time>
      </trkpt>
      <trkpt lat="43.31178" lon="3.49885">
        <ele>24</ele>
        <time>2011-07-25 15:34:29 +0000</time>
      </trkpt>
      <trkpt lat="43.31253" lon="3.49943">
        <ele>24</ele>
        <time>2011-07-25 15:34:40 +0000</time>
      </trkpt>
      <trkpt lat="43.3131" lon="3.49937">
        <ele>21</ele>
        <time>2011-07-25 15:34:52 +0000</time>
      </trkpt>
      <trkpt lat="43.31347" lon="3.49909">
        <ele>18</ele>
        <time>2011-07-25 15:35:04 +0000</time>
      </trkpt>
      <trkpt lat="43.31372" lon="3.49891">
        <ele>16</ele>
        <time>2011-07-25 15:35:16 +0000</time>
      </trkpt>
      <trkpt lat="43.31372" lon="3.49891">
        <ele>16</ele>
        <time>2011-07-25 15:35:27 +0000</time>
      </trkpt>
      <trkpt lat="43.31316" lon="3.49852">
        <ele>12</ele>
        <time>2011-07-25 15:35:38 +0000</time>
      </trkpt>
      <trkpt lat="43.31288" lon="3.49825">
        <ele>11</ele>
        <time>2011-07-25 15:35:50 +0000</time>
      </trkpt>
      <trkpt lat="43.31274" lon="3.49805">
        <ele>10</ele>
        <time>2011-07-25 15:36:01 +0000</time>
      </trkpt>
      <trkpt lat="43.31266" lon="3.49764">
        <ele>9</ele>
        <time>2011-07-25 15:36:13 +0000</time>
      </trkpt>
      <trkpt lat="43.31266" lon="3.497">
        <ele>8</ele>
        <time>2011-07-25 15:36:25 +0000</time>
      </trkpt>
      <trkpt lat="43.31273" lon="3.4963">
        <ele>10</ele>
        <time>2011-07-25 15:36:36 +0000</time>
      </trkpt>
      <trkpt lat="43.31287" lon="3.49587">
        <ele>10</ele>
        <time>2011-07-25 15:36:47 +0000</time>
      </trkpt>
      <trkpt lat="43.31309" lon="3.49548">
        <ele>10</ele>
        <time>2011-07-25 15:36:58 +0000</time>
      </trkpt>
      <trkpt lat="43.31581" lon="3.48893">
        <ele>-40</ele>
        <time>2011-07-25 15:40:10 +0000</time>
      </trkpt>
      <trkpt lat="43.31594" lon="3.48886">
        <ele>-6</ele>
        <time>2011-07-25 15:40:31 +0000</time>
      </trkpt>
      <trkpt lat="43.31651" lon="3.48808">
        <ele>-6</ele>
        <time>2011-07-25 15:40:42 +0000</time>
      </trkpt>
      <trkpt lat="43.31739" lon="3.48711">
        <ele>-6</ele>
        <time>2011-07-25 15:40:54 +0000</time>
      </trkpt>
      <trkpt lat="43.3175" lon="3.48701">
        <ele>-6</ele>
        <time>2011-07-25 15:41:05 +0000</time>
      </trkpt>
      <trkpt lat="43.31933" lon="3.48617">
        <ele>-5</ele>
        <time>2011-07-25 15:42:17 +0000</time>
      </trkpt>
      <trkpt lat="43.31958" lon="3.48603">
        <ele>-6</ele>
        <time>2011-07-25 15:42:28 +0000</time>
      </trkpt>
      <trkpt lat="43.31969" lon="3.48567">
        <ele>-7</ele>
        <time>2011-07-25 15:42:39 +0000</time>
      </trkpt>
      <trkpt lat="43.31966" lon="3.48524">
        <ele>-7</ele>
        <time>2011-07-25 15:42:51 +0000</time>
      </trkpt>
      <trkpt lat="43.31958" lon="3.48438">
        <ele>-7</ele>
        <time>2011-07-25 15:43:03 +0000</time>
      </trkpt>
      <trkpt lat="43.31953" lon="3.48398">
        <ele>-5</ele>
        <time>2011-07-25 15:43:15 +0000</time>
      </trkpt>
      <trkpt lat="43.31945" lon="3.48361">
        <ele>-5</ele>
        <time>2011-07-25 15:43:26 +0000</time>
      </trkpt>
      <trkpt lat="43.31897" lon="3.48314">
        <ele>-5</ele>
        <time>2011-07-25 15:43:37 +0000</time>
      </trkpt>
      <trkpt lat="43.31868" lon="3.48308">
        <ele>-5</ele>
        <time>2011-07-25 15:43:48 +0000</time>
      </trkpt>
      <trkpt lat="43.31839" lon="3.48301">
        <ele>-4</ele>
        <time>2011-07-25 15:44:00 +0000</time>
      </trkpt>
      <trkpt lat="43.31805" lon="3.48236">
        <ele>3</ele>
        <time>2011-07-25 15:44:12 +0000</time>
      </trkpt>
      <trkpt lat="43.31773" lon="3.48203">
        <ele>7</ele>
        <time>2011-07-25 15:44:23 +0000</time>
      </trkpt>
      <trkpt lat="43.31773" lon="3.48203">
        <ele>7</ele>
        <time>2011-07-25 15:44:34 +0000</time>
      </trkpt>
      <trkpt lat="43.31748" lon="3.48186">
        <ele>9</ele>
        <time>2011-07-25 15:44:46 +0000</time>
      </trkpt>
      <trkpt lat="43.31717" lon="3.48119">
        <ele>9</ele>
        <time>2011-07-25 15:44:58 +0000</time>
      </trkpt>
      <trkpt lat="43.31713" lon="3.48082">
        <ele>9</ele>
        <time>2011-07-25 15:45:10 +0000</time>
      </trkpt>
      <trkpt lat="43.31712" lon="3.48044">
        <ele>13</ele>
        <time>2011-07-25 15:45:21 +0000</time>
      </trkpt>
      <trkpt lat="43.31723" lon="3.47966">
        <ele>13</ele>
        <time>2011-07-25 15:45:33 +0000</time>
      </trkpt>
      <trkpt lat="43.3173" lon="3.47925">
        <ele>13</ele>
        <time>2011-07-25 15:45:45 +0000</time>
      </trkpt>
      <trkpt lat="43.31729" lon="3.47885">
        <ele>12</ele>
        <time>2011-07-25 15:45:57 +0000</time>
      </trkpt>
      <trkpt lat="43.31719" lon="3.47804">
        <ele>13</ele>
        <time>2011-07-25 15:46:08 +0000</time>
      </trkpt>
      <trkpt lat="43.31707" lon="3.47726">
        <ele>14</ele>
        <time>2011-07-25 15:46:19 +0000</time>
      </trkpt>
      <trkpt lat="43.31702" lon="3.47685">
        <ele>15</ele>
        <time>2011-07-25 15:46:30 +0000</time>
      </trkpt>
      <trkpt lat="43.31694" lon="3.47649">
        <ele>15</ele>
        <time>2011-07-25 15:46:42 +0000</time>
      </trkpt>
      <trkpt lat="43.31662" lon="3.47541">
        <ele>14</ele>
        <time>2011-07-25 15:46:55 +0000</time>
      </trkpt>
      <trkpt lat="43.31662" lon="3.47541">
        <ele>14</ele>
        <time>2011-07-25 15:47:07 +0000</time>
      </trkpt>
      <trkpt lat="43.31615" lon="3.47569">
        <ele>14</ele>
        <time>2011-07-25 15:47:18 +0000</time>
      </trkpt>
      <trkpt lat="43.31575" lon="3.47621">
        <ele>13</ele>
        <time>2011-07-25 15:47:30 +0000</time>
      </trkpt>
      <trkpt lat="43.31575" lon="3.47621">
        <ele>13</ele>
        <time>2011-07-25 15:47:42 +0000</time>
      </trkpt>
    </trkseg>
  </trk>
</gpx>